Nearby METAR Reports

 

KBED - Bedford, Massachusetts, USA
Distance from station: W 5mi, 9km
Updated: Wed, 26-Jun-2019 7:56pm EDT
Clear
Clear
 Wind from SSE
Wind: SSE 6 mph , 9 km/h
Temperature: 72°F , 22°C
Dew Point: 63°F , 17°C
Humidity: 73%
Barometer: 1016.3 hPa
Clouds: Clear
Visibility: 10 miles , 16 km
2019/06/26 23:56 KBED 262356Z 15005KT 10SM CLR 22/17 A3001 RMK AO2 SLP173 T02220167 10289 20222 53014
KBOS - Boston, Massachusetts, USA
Distance from station: SE 11mi, 18km
Updated: Wed, 26-Jun-2019 7:54pm EDT
Partly cloudy
Partly cloudy
 Wind from ESE
Wind: ESE 5 mph , 7 km/h
Temperature: 63°F , 17°C
Dew Point: 59°F , 15°C
Humidity: 88%
Barometer: 1017.3 hPa
Clouds: Partly cloudy
Visibility: 10 miles , 16 km
Cloud details: Few Clouds 200 ft
Few Clouds 4000 ft
Partly cloudy 25000 ft
2019/06/26 23:54 KBOS 262354Z 12004KT 10SM FEW002 FEW040 SCT250 17/15 A3004 RMK AO2 SLP172 FEW002 E T01720150 10222 20172 53010 $
 
KBVY - Beverly, Massachusetts, USA
Distance from station: ENE 17mi, 27km
Updated: Wed, 26-Jun-2019 7:53pm EDT
Clear
Clear
 Wind from SE
Wind: SE 5 mph , 7 km/h
Temperature: 64°F , 18°C
Dew Point: 57°F , 14°C
Humidity: 78%
Barometer: 1016.6 hPa
Clouds: Clear
Visibility: 10 miles , 16 km
2019/06/26 23:53 KBVY 262353Z 13004KT 10SM CLR 18/14 A3002 RMK AO2 SLP161 T01780144 10256 20178 53011
KMQE - East Milton, Massachusetts, USA
Distance from station: SSE 17mi, 28km
Updated: Wed, 26-Jun-2019 7:56pm EDT

 Wind from ESE
Wind: ESE 7 mph , 11 km/h
Temperature: 68°F , 20°C
Dew Point: 64°F , 18°C
Humidity: 88%
Barometer: 1016.9 hPa
2019/06/26 23:56 KMQE 262356Z AUTO 12006KT 20/18 A3003 RMK AO1 SLP177 T02000178 10250 20200 53009
 
KLWM - Lawrence, Massachusetts, USA
Distance from station: N 18mi, 29km
Updated: Wed, 26-Jun-2019 7:54pm EDT
Clear
Clear
 Wind from ENE
Wind: ENE 8 mph , 13 km/h
Temperature: 66°F , 19°C
Dew Point: 61°F , 16°C
Humidity: 83%
Barometer: 1017.3 hPa
Clouds: Clear
Visibility: 10 miles , 16 km
2019/06/26 23:54 KLWM 262354Z 06007KT 10SM CLR 19/16 A3004 RMK AO2 SLP171 T01940161 10278 20194 53014
KOWD - Norwood, Massachusetts, USA
Distance from station: S 19mi, 31km
Updated: Wed, 26-Jun-2019 7:53pm EDT
Clear
Clear
 Wind from calm
Wind: Calm
Temperature: 73°F , 23°C
Dew Point: 63°F , 17°C
Humidity: 69%
Barometer: 1016.6 hPa
Clouds: Clear
Visibility: 10 miles , 16 km
2019/06/26 23:53 KOWD 262353Z 00000KT 10SM CLR 23/17 A3002 RMK AO2 SLP164 T02330172 10289 20233 53011
 
KASH - Nashua/Boire Fld, New Hampshire, USA
Distance from station: NW 28mi, 45km
Updated: Wed, 26-Jun-2019 7:56pm EDT
Clear
Clear
 Wind from ESE
Wind: ESE 9 mph , 15 km/h
Temperature: 77°F , 25°C
Dew Point: 70°F , 21°C
Humidity: 79%
Barometer: 1016.3 hPa
Clouds: Clear
Visibility: 10 miles , 16 km
2019/06/26 23:56 KASH 262356Z 12008KT 10SM CLR 25/21 A3001 RMK AO2 SLP169 T02500206 10294 20250 53011
KFIT - Fitchburg, Massachusetts, USA
Distance from station: WNW 29mi, 47km
Updated: Wed, 26-Jun-2019 7:52pm EDT
Clear
Clear
 Wind from ESE
Wind: ESE 8 mph , 13 km/h
Temperature: 79°F , 26°C
Dew Point: 66°F , 19°C
Humidity: 65%
Barometer: 1016.3 hPa
Clouds: Clear
Visibility: 10 miles , 16 km
2019/06/26 23:52 KFIT 262352Z AUTO 12007KT 10SM CLR 26/19 A3001 RMK AO2 SLP160 T02610189 10283 20261 53008
 
KMHT - Manchester, New Hampshire, USA
Distance from station: NNW 35mi, 56km
Updated: Wed, 26-Jun-2019 7:53pm EDT
Few Clouds
Few Clouds
 Wind from SE
Wind: SE 10 mph , 17 km/h
Temperature: 75°F , 24°C
Dew Point: 66°F , 19°C
Humidity: 74%
Barometer: 1015.6 hPa
Clouds: Few Clouds
Visibility: 10 miles , 16 km
Cloud details: Few Clouds 4000 ft
Few Clouds 25000 ft
2019/06/26 23:53 KMHT 262353Z 13009KT 10SM FEW040 FEW250 24/19 A2999 RMK AO2 SLP165 T02390189 10289 20239 53013
KGHG - Marshfield, Massachusetts, USA
Distance from station: SE 37mi, 59km
Updated: Wed, 26-Jun-2019 7:55pm EDT
Clear
Clear
 Wind from calm
Wind: Calm
Temperature: 64°F , 18°C
Dew Point: 63°F , 17°C
Humidity: 94%
Barometer: 1017.3 hPa
Clouds: Clear
Visibility: 10 miles , 16 km
2019/06/26 23:55 KGHG 262355Z AUTO 00000KT 10SM CLR 18/17 A3004 RMK AO2
 
KORH - Worcester, Massachusetts, USA
Distance from station: WSW 37mi, 59km
Updated: Wed, 26-Jun-2019 7:54pm EDT
Clear
Clear
 Wind from calm
Wind: Calm
Temperature: 79°F , 26°C
Dew Point: 61°F , 16°C
Humidity: 54%
Barometer: 1016.9 hPa
Clouds: Clear
Visibility: 10 miles , 16 km
2019/06/26 23:54 KORH 262354Z 00000KT 10SM CLR 26/16 A3003 RMK AO2 SLP165 T02560161 10278 20250 53009
KSFZ - Pawtucket, Rhode Island, USA
Distance from station: SSW 41mi, 65km
Updated: Wed, 26-Jun-2019 7:56pm EDT
Clear
Clear
 Wind from SE
Wind: SE 5 mph , 7 km/h
Temperature: 72°F , 22°C
Dew Point: 66°F , 19°C
Humidity: 83%
Barometer: 1016.9 hPa
Clouds: Clear
Visibility: 10 miles , 16 km
2019/06/26 23:56 KSFZ 262356Z AUTO 14004KT 10SM CLR 22/19 A3003 RMK AO2 SLP115 T02170194 10294 20217 53014
 
KTAN - Taunton, Massachusetts, USA
Distance from station: SSE 41mi, 66km
Updated: Wed, 26-Jun-2019 7:52pm EDT
Clear
Clear
 Wind from ESE
Wind: ESE 5 mph , 7 km/h
Temperature: 75°F , 24°C
Dew Point: 66°F , 19°C
Humidity: 74%
Barometer: 1016.6 hPa
Clouds: Clear
Visibility: 10 miles , 16 km
2019/06/26 23:52 KTAN 262352Z AUTO 12004KT 10SM CLR 24/19 A3002 RMK AO2 SLP164 T02390189 10294 20239 53015
KPYM - Plymouth, Massachusetts, USA
Distance from station: SSE 44mi, 71km
Updated: Wed, 26-Jun-2019 7:52pm EDT
Clear
Clear
 Wind from calm
Wind: Calm
Temperature: 70°F , 21°C
Dew Point: 63°F , 17°C
Humidity: 78%
Barometer: 1017.3 hPa
Clouds: Clear
Visibility: 10 miles , 16 km
2019/06/26 23:52 KPYM 262352Z AUTO 00000KT 10SM CLR 21/17 A3004 RMK AO2 SLP171 T02060172 10222 20189 53009
 
KPSM - Portsmouth/Pease, New Hampshire, USA
Distance from station: NNE 46mi, 74km
Updated: Wed, 26-Jun-2019 7:56pm EDT
Few Clouds
Few Clouds
 Wind from E
Wind: E 5 mph , 7 km/h
Temperature: 63°F , 17°C
Dew Point: 61°F , 16°C
Humidity: 94%
Barometer: 1016.9 hPa
Clouds: Few Clouds
Visibility: 10 miles , 16 km
Cloud details: Few Clouds 800 ft
Few Clouds 25000 ft
2019/06/26 23:56 KPSM 262356Z 10004KT 10SM FEW008 FEW250 17/16 A3003 RMK AO2A SLP171 T01700155 10244 20165 52013
KAFN - Jaffrey, New Hampshire, USA
Distance from station: WNW 47mi, 76km
Updated: Wed, 26-Jun-2019 7:52pm EDT
Few Clouds
Few Clouds
 Wind from calm
Wind: Calm
Temperature: 73°F , 23°C
Dew Point: 66°F , 19°C
Humidity: 78%
Barometer: 1016.9 hPa
Clouds: Few Clouds
Visibility: 10 miles , 16 km
Cloud details: Few Clouds 6500 ft
2019/06/26 23:52 KAFN 262352Z AUTO 00000KT 10SM FEW065 23/19 A3003 RMK AO2 SLP170 T02330189 10294 20233 53008